Maysville, Colorado
Current Conditions -  °F | °C
As of 3:15 PM on Thursday 18 Dec 2014 (Local Time) from KANK Reporting Station
Clear Clear  
Wind Chill: 30°   Ceiling: Unl
Heat Index: 38°   Visibility: 10mi
Dew Point: 17°   Wind: 13mph
Humidity: 43%   Direction: 190°S
Pressure: 30.09"   Gusts: 18mph
Location:  38.5561°N, 106.066°W
Report Text: KANK 182215Z AUTO 19011G16KT 10SM CLR 03/M08 A3009 RMK AO1 T00341082
Loading
Personal Weather Stations






























Interactive Weather Map New forecast layout! Learn more

10-Day Weather Forecast

Advertisements
Track Severe Weather on mobile